createdAt,value
2022-08-25T00:00:53.210Z,21.05
2022-08-25T00:02:03.013Z,20.92
2022-08-25T00:03:04.843Z,23.98
2022-08-25T00:04:10.995Z,20.65
2022-08-25T00:05:13.047Z,21.25
2022-08-25T00:06:15.814Z,19.38
2022-08-25T00:07:18.659Z,18.63
2022-08-25T00:08:20.364Z,14.88
2022-08-25T00:09:25.446Z,20.55
2022-08-25T00:10:27.329Z,19.80
2022-08-25T00:11:32.018Z,15.82
2022-08-25T00:12:33.765Z,13.63
2022-08-25T00:13:35.356Z,15.43
2022-08-25T00:14:38.071Z,13.90
2022-08-25T00:15:39.735Z,18.73
2022-08-25T00:16:41.926Z,18.00
2022-08-25T00:17:43.533Z,20.73
2022-08-25T00:18:50.251Z,20.67
2022-08-25T00:19:51.865Z,17.45
2022-08-25T00:20:53.642Z,20.20
2022-08-25T00:21:56.382Z,18.23
2022-08-25T00:22:58.527Z,15.63
2022-08-25T00:24:02.448Z,14.20
2022-08-25T00:25:04.483Z,18.25
2022-08-25T00:26:07.196Z,17.33
2022-08-25T00:27:08.907Z,14.32
2022-08-25T00:28:10.787Z,18.75
2022-08-25T00:29:13.487Z,15.90
2022-08-25T00:30:16.823Z,13.90
2022-08-25T00:31:20.895Z,14.00
2022-08-25T00:32:24.442Z,17.33
2022-08-25T00:33:26.329Z,15.93
2022-08-25T00:34:37.891Z,15.82
2022-08-25T00:35:41.180Z,16.90
2022-08-25T00:36:43.607Z,12.80
2022-08-25T00:37:45.303Z,13.20
2022-08-25T00:38:48.170Z,12.45
2022-08-25T00:39:49.958Z,15.10
2022-08-25T00:41:05.987Z,14.68
2022-08-25T00:42:15.875Z,11.38
2022-08-25T00:43:18.865Z,16.88
2022-08-25T00:44:20.648Z,17.25
2022-08-25T00:45:23.256Z,17.77
2022-08-25T00:46:31.977Z,22.15
2022-08-25T00:47:33.681Z,17.52
2022-08-25T00:48:35.302Z,14.23
2022-08-25T00:49:41.839Z,17.85
2022-08-25T00:50:43.574Z,15.13
2022-08-25T00:51:51.331Z,17.35
2022-08-25T00:52:56.186Z,17.35
2022-08-25T00:53:58.463Z,12.63
2022-08-25T00:55:09.563Z,13.90
2022-08-25T00:56:13.134Z,17.63
2022-08-25T00:57:18.495Z,20.30
2022-08-25T00:58:27.198Z,19.25
2022-08-25T00:59:29.321Z,20.08
2022-08-25T01:00:38.233Z,17.13
2022-08-25T01:01:40.250Z,14.05
2022-08-25T01:02:41.949Z,18.90
2022-08-25T01:03:43.640Z,15.50
2022-08-25T01:04:49.227Z,17.85
2022-08-25T01:05:52.128Z,14.20
2022-08-25T01:06:55.701Z,18.23
2022-08-25T01:07:59.004Z,19.55
2022-08-25T01:09:01.758Z,17.13
2022-08-25T01:10:07.697Z,19.17
2022-08-25T01:11:11.338Z,20.95
2022-08-25T01:12:13.474Z,24.85
2022-08-25T01:13:27.730Z,24.67
2022-08-25T01:14:31.980Z,20.33
2022-08-25T01:15:34.612Z,19.23
2022-08-25T01:16:39.541Z,21.42
2022-08-25T01:17:49.882Z,19.83
2022-08-25T01:18:56.441Z,24.58
2022-08-25T01:19:58.029Z,20.38
2022-08-25T01:21:00.144Z,24.90
2022-08-25T01:22:01.915Z,24.15
2022-08-25T01:23:04.231Z,25.90
2022-08-25T01:24:06.982Z,21.85
2022-08-25T01:25:24.490Z,21.38
2022-08-25T01:26:31.051Z,24.15
2022-08-25T01:27:32.761Z,21.80
2022-08-25T01:28:35.522Z,20.67
2022-08-25T01:29:37.969Z,22.10
2022-08-25T01:30:40.134Z,20.77
2022-08-25T01:31:41.971Z,23.02
2022-08-25T01:32:43.609Z,18.58
2022-08-25T01:33:45.527Z,24.70
2022-08-25T01:34:47.340Z,27.75
2022-08-25T01:35:49.208Z,25.65
2022-08-25T01:36:51.159Z,14.65
2022-08-25T01:37:52.723Z,18.83
2022-08-25T01:38:55.212Z,23.42
2022-08-25T01:39:56.855Z,21.15
2022-08-25T01:40:58.445Z,24.50
2022-08-25T01:42:02.995Z,21.15
2022-08-25T01:43:07.722Z,18.50
2022-08-25T01:44:12.373Z,23.58
2022-08-25T01:45:18.989Z,19.58
2022-08-25T01:46:21.133Z,19.75
2022-08-25T01:47:23.991Z,20.33
2022-08-25T01:48:25.538Z,20.00
2022-08-25T01:49:27.127Z,16.23
2022-08-25T01:50:29.604Z,25.08
2022-08-25T01:51:39.021Z,19.30
2022-08-25T01:52:59.779Z,21.48
2022-08-25T01:54:01.434Z,21.05
2022-08-25T01:55:04.160Z,18.83
2022-08-25T01:56:11.609Z,19.50
2022-08-25T01:57:13.564Z,19.85
2022-08-25T01:58:15.154Z,18.75
2022-08-25T01:59:24.151Z,15.60
2022-08-25T02:00:26.068Z,18.15
2022-08-25T02:01:28.019Z,24.15
2022-08-25T02:02:29.787Z,18.33
2022-08-25T02:03:38.688Z,20.63
2022-08-25T02:04:44.391Z,20.13
2022-08-25T02:05:48.054Z,16.40
2022-08-25T02:06:50.362Z,21.00
2022-08-25T02:07:51.966Z,14.75
2022-08-25T02:08:55.391Z,17.77
2022-08-25T02:09:57.040Z,20.45
2022-08-25T02:11:00.797Z,18.20
2022-08-25T02:12:02.712Z,19.70
2022-08-25T02:13:05.860Z,21.48
2022-08-25T02:14:14.420Z,15.57
2022-08-25T02:15:15.991Z,30.75
2022-08-25T02:16:21.386Z,20.83
2022-08-25T02:17:23.001Z,18.27
2022-08-25T02:18:25.304Z,21.73
2022-08-25T02:19:27.014Z,24.45
2022-08-25T02:20:28.922Z,26.02
2022-08-25T02:21:30.631Z,21.67
2022-08-25T02:22:32.655Z,18.25
2022-08-25T02:23:34.211Z,21.42
2022-08-25T02:24:35.797Z,21.17
2022-08-25T02:25:39.912Z,18.80
2022-08-25T02:26:41.682Z,20.05
2022-08-25T02:27:43.831Z,17.25
2022-08-25T02:28:51.080Z,20.85
2022-08-25T02:29:52.759Z,20.23
2022-08-25T02:31:01.659Z,20.98
2022-08-25T02:32:03.985Z,18.55
2022-08-25T02:33:05.658Z,20.70
2022-08-25T02:34:08.774Z,21.95
2022-08-25T02:35:10.701Z,18.15
2022-08-25T02:36:12.942Z,22.27
2022-08-25T02:37:14.680Z,20.73
2022-08-25T02:38:16.287Z,17.60
2022-08-25T02:39:17.896Z,21.48
2022-08-25T02:40:21.443Z,25.88
2022-08-25T02:41:30.966Z,28.05
2022-08-25T02:42:33.701Z,18.98
2022-08-25T02:43:35.323Z,19.65
2022-08-25T02:44:36.884Z,19.55
2022-08-25T02:45:38.518Z,22.98
2022-08-25T02:46:40.170Z,21.00
2022-08-25T02:47:41.895Z,20.30
2022-08-25T02:48:43.552Z,20.15
2022-08-25T02:49:45.181Z,22.92
2022-08-25T02:50:48.608Z,19.23
2022-08-25T02:51:50.197Z,19.27
2022-08-25T02:52:52.502Z,20.02
2022-08-25T02:53:54.139Z,19.15
2022-08-25T02:54:55.732Z,19.35
2022-08-25T02:55:57.493Z,23.75
2022-08-25T02:56:59.620Z,22.15
2022-08-25T02:58:01.375Z,17.50
2022-08-25T02:59:03.445Z,20.65
2022-08-25T03:00:06.221Z,20.05
2022-08-25T03:01:12.009Z,20.85
2022-08-25T03:02:14.858Z,21.67
2022-08-25T03:03:16.623Z,18.25
2022-08-25T03:04:18.608Z,21.30
2022-08-25T03:05:20.324Z,15.80
2022-08-25T03:06:24.142Z,26.20
2022-08-25T03:07:25.762Z,21.23
2022-08-25T03:08:27.907Z,23.75
2022-08-25T03:09:29.538Z,22.92
2022-08-25T03:10:36.155Z,23.35
2022-08-25T03:11:40.995Z,19.00
2022-08-25T03:12:42.857Z,20.92
2022-08-25T03:13:44.556Z,18.33
2022-08-25T03:14:46.133Z,25.77
2022-08-25T03:15:49.296Z,21.27
2022-08-25T03:16:51.332Z,21.38
2022-08-25T03:17:54.037Z,16.63
2022-08-25T03:18:56.556Z,21.52
2022-08-25T03:19:59.139Z,18.27
2022-08-25T03:21:00.809Z,19.10
2022-08-25T03:22:02.458Z,20.45
2022-08-25T03:23:05.346Z,23.35
2022-08-25T03:24:07.414Z,22.35
2022-08-25T03:25:28.599Z,17.73
2022-08-25T03:26:49.112Z,20.27
2022-08-25T03:27:51.650Z,20.58
2022-08-25T03:28:55.500Z,19.25
2022-08-25T03:29:57.094Z,19.05
2022-08-25T03:31:00.535Z,26.52
2022-08-25T03:32:02.307Z,20.30
2022-08-25T03:33:04.262Z,17.77
2022-08-25T03:34:06.001Z,17.35
2022-08-25T03:35:08.162Z,19.83
2022-08-25T03:36:12.243Z,22.05
2022-08-25T03:37:13.967Z,21.92
2022-08-25T03:38:16.894Z,19.90
2022-08-25T03:39:20.660Z,17.65
2022-08-25T03:40:23.211Z,19.27
2022-08-25T03:41:29.264Z,19.95
2022-08-25T03:42:32.303Z,21.20
2022-08-25T03:43:34.559Z,18.90
2022-08-25T03:44:36.749Z,18.75
2022-08-25T03:45:43.324Z,20.05
2022-08-25T03:46:48.638Z,22.55
2022-08-25T03:47:51.728Z,17.73
2022-08-25T03:48:53.855Z,20.58
2022-08-25T03:49:56.317Z,20.95
2022-08-25T03:50:57.981Z,18.00
2022-08-25T03:51:59.626Z,16.45
2022-08-25T03:53:01.720Z,20.80
2022-08-25T03:54:04.490Z,18.90
2022-08-25T03:55:08.544Z,21.50
2022-08-25T03:56:10.642Z,21.02
2022-08-25T03:57:12.666Z,20.90
2022-08-25T03:58:14.793Z,20.00
2022-08-25T03:59:16.684Z,21.17
2022-08-25T04:00:19.921Z,19.98
2022-08-25T04:01:22.021Z,18.05
2022-08-25T04:02:23.762Z,20.60
2022-08-25T04:03:25.340Z,20.27
2022-08-25T04:04:27.035Z,17.58
2022-08-25T04:05:28.641Z,17.85
2022-08-25T04:06:30.532Z,18.58
2022-08-25T04:07:32.303Z,17.55
2022-08-25T04:08:34.382Z,21.55
2022-08-25T04:09:36.982Z,19.58
2022-08-25T04:10:38.830Z,16.38
2022-08-25T04:11:41.050Z,16.40
2022-08-25T04:12:44.446Z,18.10
2022-08-25T04:13:47.354Z,22.70
2022-08-25T04:14:49.035Z,17.40
2022-08-25T04:15:50.638Z,20.05
2022-08-25T04:16:53.054Z,19.15
2022-08-25T04:17:54.907Z,21.98
2022-08-25T04:18:57.764Z,21.00
2022-08-25T04:19:59.762Z,18.15
2022-08-25T04:21:03.504Z,20.75
2022-08-25T04:22:05.093Z,19.55
2022-08-25T04:23:06.724Z,15.60
2022-08-25T04:24:11.314Z,16.58
2022-08-25T04:25:13.578Z,19.73
2022-08-25T04:26:21.174Z,18.95
2022-08-25T04:27:22.736Z,21.30
2022-08-25T04:28:24.384Z,23.17
2022-08-25T04:29:26.534Z,22.55
2022-08-25T04:30:28.204Z,15.65
2022-08-25T04:31:31.349Z,23.25
2022-08-25T04:32:33.308Z,27.52
2022-08-25T04:33:36.076Z,22.58
2022-08-25T04:34:37.653Z,18.55
2022-08-25T04:35:41.177Z,21.23
2022-08-25T04:36:42.825Z,22.27
2022-08-25T04:37:45.089Z,21.70
2022-08-25T04:38:48.402Z,20.60
2022-08-25T04:39:49.972Z,24.95
2022-08-25T04:41:03.405Z,27.00
2022-08-25T04:42:05.380Z,18.92
2022-08-25T04:43:07.241Z,22.77
2022-08-25T04:44:08.876Z,21.00
2022-08-25T04:45:11.166Z,20.42
2022-08-25T04:46:23.217Z,19.65
2022-08-25T04:47:26.072Z,19.38
2022-08-25T04:48:29.714Z,18.50
2022-08-25T04:49:32.072Z,21.33
2022-08-25T04:50:33.695Z,24.55
2022-08-25T04:51:39.675Z,18.75
2022-08-25T04:52:41.296Z,18.58
2022-08-25T04:53:43.751Z,21.13
2022-08-25T04:54:45.340Z,21.40
2022-08-25T04:55:48.560Z,23.38
2022-08-25T04:56:54.275Z,17.98
2022-08-25T04:57:59.721Z,20.80
2022-08-25T04:59:07.729Z,21.05
2022-08-25T05:00:10.000Z,20.90
2022-08-25T05:01:15.825Z,19.27
2022-08-25T05:02:17.666Z,24.88
2022-08-25T05:03:19.280Z,20.30
2022-08-25T05:04:28.067Z,24.73
2022-08-25T05:05:31.960Z,20.75
2022-08-25T05:06:35.991Z,27.38
2022-08-25T05:07:37.587Z,20.55
2022-08-25T05:08:39.774Z,22.20
2022-08-25T05:09:41.467Z,19.27
2022-08-25T05:10:43.207Z,28.40
2022-08-25T05:11:45.609Z,20.08
2022-08-25T05:12:48.604Z,22.45
2022-08-25T05:13:52.389Z,21.95
2022-08-25T05:14:54.668Z,20.15
2022-08-25T05:16:00.194Z,23.20
2022-08-25T05:17:02.485Z,23.52
2022-08-25T05:18:04.329Z,27.55
2022-08-25T05:19:06.496Z,19.80
2022-08-25T05:20:08.694Z,21.90
2022-08-25T05:21:13.262Z,22.05
2022-08-25T05:22:14.842Z,22.38
2022-08-25T05:23:16.958Z,20.92
2022-08-25T05:24:18.874Z,19.95
2022-08-25T05:25:20.517Z,19.70
2022-08-25T05:26:22.808Z,21.90
2022-08-25T05:27:24.365Z,21.67
2022-08-25T05:28:25.959Z,16.58
2022-08-25T05:29:27.539Z,20.77
2022-08-25T05:30:29.333Z,19.23
2022-08-25T05:31:32.441Z,22.17
2022-08-25T05:32:34.079Z,23.05
2022-08-25T05:33:37.421Z,19.90
2022-08-25T05:34:39.008Z,19.48
2022-08-25T05:35:40.635Z,21.42
2022-08-25T05:36:43.578Z,21.70
2022-08-25T05:37:45.331Z,20.70
2022-08-25T05:38:47.564Z,18.63
2022-08-25T05:39:49.249Z,20.52
2022-08-25T05:41:03.513Z,25.83
2022-08-25T05:42:05.423Z,20.60
2022-08-25T05:43:07.051Z,20.80
2022-08-25T05:44:08.708Z,18.88
2022-08-25T05:45:15.817Z,22.33
2022-08-25T05:46:22.380Z,22.88
2022-08-25T05:47:24.168Z,19.88
2022-08-25T05:48:26.824Z,25.98
2022-08-25T05:49:28.540Z,20.67
2022-08-25T05:50:30.138Z,20.13
2022-08-25T05:51:31.719Z,22.58
2022-08-25T05:52:33.516Z,23.33
2022-08-25T05:53:35.643Z,22.58
2022-08-25T05:54:37.196Z,25.00
2022-08-25T05:55:38.755Z,22.10
2022-08-25T05:56:40.506Z,22.67
2022-08-25T05:57:42.559Z,23.95
2022-08-25T05:58:44.557Z,29.25
2022-08-25T05:59:46.210Z,25.02
2022-08-25T06:00:47.914Z,25.45
2022-08-25T06:02:08.173Z,24.58
2022-08-25T06:03:09.832Z,28.10
2022-08-25T06:04:11.494Z,31.40
2022-08-25T06:05:20.067Z,24.80
2022-08-25T06:06:24.327Z,25.33
2022-08-25T06:07:26.088Z,24.58
2022-08-25T06:08:32.277Z,21.20
2022-08-25T06:09:33.878Z,22.08
2022-08-25T06:10:35.912Z,21.83
2022-08-25T06:11:39.991Z,26.58
2022-08-25T06:12:47.509Z,25.42
2022-08-25T06:13:50.039Z,23.15
2022-08-25T06:14:51.639Z,21.00
2022-08-25T06:15:58.118Z,28.02
2022-08-25T06:17:00.666Z,24.55
2022-08-25T06:18:03.481Z,23.70
2022-08-25T06:19:05.709Z,27.35
2022-08-25T06:20:09.694Z,26.50
2022-08-25T06:21:14.189Z,28.13
2022-08-25T06:22:15.765Z,24.25
2022-08-25T06:23:19.203Z,24.13
2022-08-25T06:24:20.855Z,26.70
2022-08-25T06:25:25.681Z,29.48
2022-08-25T06:26:27.296Z,27.20
2022-08-25T06:27:28.899Z,38.85
2022-08-25T06:28:30.496Z,27.00
2022-08-25T06:29:32.700Z,30.75
2022-08-25T06:30:34.343Z,33.58
2022-08-25T06:31:36.655Z,25.55
2022-08-25T06:32:40.001Z,29.45
2022-08-25T06:33:41.645Z,32.50
2022-08-25T06:34:43.244Z,24.77
2022-08-25T06:35:45.068Z,29.83
2022-08-25T06:36:48.957Z,30.15
2022-08-25T06:37:51.091Z,34.45
2022-08-25T06:38:53.513Z,29.98
2022-08-25T06:39:55.769Z,31.92
2022-08-25T06:40:57.825Z,27.35
2022-08-25T06:41:59.444Z,26.67
2022-08-25T06:43:01.104Z,26.67
2022-08-25T06:44:05.484Z,28.05
2022-08-25T06:45:08.232Z,27.10
2022-08-25T06:46:17.115Z,27.17
2022-08-25T06:47:18.947Z,25.77
2022-08-25T06:48:20.672Z,23.42
2022-08-25T06:49:22.465Z,28.88
2022-08-25T06:50:24.222Z,24.63
2022-08-25T06:51:26.644Z,28.00
2022-08-25T06:52:29.438Z,26.20
2022-08-25T06:53:31.193Z,26.60
2022-08-25T06:54:33.186Z,25.30
2022-08-25T06:55:35.518Z,22.35
2022-08-25T06:56:39.393Z,22.63
2022-08-25T06:57:40.988Z,27.45
2022-08-25T06:58:42.832Z,23.02
2022-08-25T06:59:44.707Z,25.15
2022-08-25T07:00:46.383Z,24.17
2022-08-25T07:01:49.646Z,23.23
2022-08-25T07:02:51.904Z,22.83
2022-08-25T07:04:00.119Z,24.13
2022-08-25T07:05:01.722Z,26.88
2022-08-25T07:06:04.041Z,26.38
2022-08-25T07:07:05.728Z,26.27
2022-08-25T07:08:07.476Z,25.40
2022-08-25T07:09:11.385Z,28.05
2022-08-25T07:10:13.216Z,27.70
2022-08-25T07:11:17.593Z,24.70
2022-08-25T07:12:19.503Z,29.45
2022-08-25T07:13:21.347Z,25.27
2022-08-25T07:14:23.438Z,25.50
2022-08-25T07:15:25.078Z,25.80
2022-08-25T07:16:29.763Z,25.17
2022-08-25T07:17:31.931Z,29.20
2022-08-25T07:18:34.532Z,34.15
2022-08-25T07:19:36.151Z,24.65
2022-08-25T07:20:40.280Z,30.00
2022-08-25T07:21:45.798Z,26.48
2022-08-25T07:22:48.113Z,28.05
2022-08-25T07:23:49.835Z,27.38
2022-08-25T07:24:51.461Z,26.85
2022-08-25T07:25:54.239Z,22.13
2022-08-25T07:26:55.888Z,26.83
2022-08-25T07:27:59.013Z,26.58
2022-08-25T07:29:01.851Z,22.05
2022-08-25T07:30:07.553Z,25.85
2022-08-25T07:31:10.089Z,23.58
2022-08-25T07:32:12.117Z,25.95
2022-08-25T07:33:13.876Z,26.80
2022-08-25T07:34:34.730Z,22.98
2022-08-25T07:35:37.891Z,23.23
2022-08-25T07:36:39.619Z,28.13
2022-08-25T07:37:50.862Z,29.20
2022-08-25T07:38:53.495Z,27.35
2022-08-25T07:39:57.145Z,24.45
2022-08-25T07:41:05.193Z,24.95
2022-08-25T07:42:12.174Z,25.20
2022-08-25T07:43:13.880Z,27.45
2022-08-25T07:44:15.460Z,26.45
2022-08-25T07:45:20.811Z,24.95
2022-08-25T07:46:22.766Z,24.40
2022-08-25T07:47:24.443Z,27.40
2022-08-25T07:48:26.052Z,25.73
2022-08-25T07:49:35.827Z,23.92
2022-08-25T07:50:45.353Z,21.55
2022-08-25T07:52:04.033Z,26.85
2022-08-25T07:53:08.949Z,26.27
2022-08-25T07:54:10.689Z,25.90
2022-08-25T07:55:12.386Z,27.50
2022-08-25T07:56:19.653Z,29.45
2022-08-25T07:57:22.364Z,28.33
2022-08-25T07:58:24.247Z,31.30
2022-08-25T07:59:25.959Z,22.55
2022-08-25T08:00:30.278Z,27.60
2022-08-25T08:01:32.031Z,25.25
2022-08-25T08:02:35.144Z,27.10
2022-08-25T08:03:50.680Z,26.05
2022-08-25T08:04:53.823Z,25.33
2022-08-25T08:05:56.586Z,30.27
2022-08-25T08:06:58.150Z,26.27
2022-08-25T08:08:02.466Z,29.52
2022-08-25T08:09:05.072Z,32.90
2022-08-25T08:10:37.049Z,24.60
2022-08-25T08:11:34.573Z,23.65
2022-08-25T08:12:36.667Z,28.23
2022-08-25T08:13:41.436Z,24.55
2022-08-25T08:14:45.047Z,24.50
2022-08-25T08:15:47.920Z,28.15
2022-08-25T08:16:49.791Z,27.23
2022-08-25T08:17:51.554Z,29.33
2022-08-25T08:18:53.947Z,22.42
2022-08-25T08:19:55.537Z,28.90
2022-08-25T08:20:57.137Z,24.40
2022-08-25T08:22:02.164Z,25.52
2022-08-25T08:23:04.539Z,23.25
2022-08-25T08:24:14.797Z,24.50
2022-08-25T08:25:27.805Z,23.30
2022-08-25T08:26:55.239Z,25.88
2022-08-25T08:27:54.907Z,23.52
2022-08-25T08:28:56.927Z,30.60
2022-08-25T08:29:59.598Z,26.23
2022-08-25T08:31:01.439Z,27.02
2022-08-25T08:32:05.522Z,21.60
2022-08-25T08:33:11.414Z,21.63
2022-08-25T08:34:13.716Z,22.98
2022-08-25T08:35:18.875Z,26.25
2022-08-25T08:36:21.998Z,27.83
2022-08-25T08:37:28.134Z,20.50
2022-08-25T08:38:30.072Z,27.48
2022-08-25T08:39:31.679Z,28.08
2022-08-25T08:40:42.185Z,27.75
2022-08-25T08:42:11.123Z,24.95
2022-08-25T08:43:19.352Z,22.30
2022-08-25T08:44:43.020Z,24.38
2022-08-25T08:45:51.941Z,21.73
2022-08-25T08:47:28.307Z,20.77
2022-08-25T08:48:43.646Z,25.92
2022-08-25T08:50:06.723Z,22.92
2022-08-25T08:51:23.092Z,25.98
2022-08-25T08:52:48.807Z,21.45
2022-08-25T08:54:02.501Z,25.33
2022-08-25T08:55:12.070Z,28.90
2022-08-25T08:56:21.509Z,24.80
2022-08-25T08:57:28.391Z,31.10
2022-08-25T08:58:50.035Z,25.85
2022-08-25T09:00:00.161Z,20.58
2022-08-25T09:01:01.919Z,19.88
2022-08-25T09:02:06.180Z,26.38
2022-08-25T09:03:55.154Z,24.52
2022-08-25T09:05:07.093Z,25.60
2022-08-25T09:06:29.720Z,22.52
2022-08-25T09:07:45.412Z,30.85
2022-08-25T09:08:49.089Z,25.38
2022-08-25T09:09:52.229Z,25.50
2022-08-25T09:10:57.763Z,27.63
2022-08-25T09:12:34.142Z,25.92
2022-08-25T09:13:56.685Z,29.10
2022-08-25T09:15:19.846Z,26.23
2022-08-25T09:16:56.942Z,22.17
2022-08-25T09:18:23.409Z,25.80
2022-08-25T09:19:55.227Z,27.98
2022-08-25T09:21:13.456Z,25.80
2022-08-25T09:22:35.624Z,26.73
2022-08-25T09:24:12.008Z,27.75
2022-08-25T09:25:39.759Z,28.80
2022-08-25T09:26:49.349Z,23.20
2022-08-25T09:28:21.795Z,27.45
2022-08-25T09:29:27.919Z,29.63
2022-08-25T09:30:41.464Z,20.65
2022-08-25T09:31:43.549Z,28.77
2022-08-25T09:32:53.558Z,26.58
2022-08-25T09:33:57.683Z,28.35
2022-08-25T09:35:01.705Z,34.20
2022-08-25T09:36:06.417Z,28.13
2022-08-25T09:37:10.543Z,33.15
2022-08-25T09:38:13.755Z,29.98
2022-08-25T09:39:15.507Z,26.95
2022-08-25T09:40:17.556Z,28.85
2022-08-25T09:41:41.080Z,27.30
2022-08-25T09:42:51.262Z,30.17
2022-08-25T09:43:59.376Z,27.60
2022-08-25T09:45:01.114Z,22.73
2022-08-25T09:46:05.206Z,31.65
2022-08-25T09:47:12.572Z,28.75
2022-08-25T09:48:40.873Z,29.50
2022-08-25T09:49:47.386Z,22.75
2022-08-25T09:50:51.036Z,32.60
2022-08-25T09:51:52.748Z,27.38
2022-08-25T09:52:54.441Z,27.63
2022-08-25T09:53:58.374Z,29.60
2022-08-25T09:55:27.386Z,36.08
2022-08-25T09:56:32.377Z,24.92
2022-08-25T09:57:44.205Z,25.92
2022-08-25T09:58:45.790Z,29.40
2022-08-25T09:59:55.717Z,24.35
2022-08-25T10:01:18.786Z,26.25
2022-08-25T10:02:29.499Z,29.35
2022-08-25T10:03:32.297Z,29.83
2022-08-25T10:04:40.587Z,36.97
2022-08-25T10:06:00.930Z,27.60
2022-08-25T10:07:20.574Z,33.10
2022-08-25T10:08:31.401Z,31.55
2022-08-25T10:09:43.067Z,27.83
2022-08-25T10:10:53.192Z,30.85
2022-08-25T10:11:57.612Z,29.50
2022-08-25T10:13:01.771Z,29.15
2022-08-25T10:14:06.997Z,29.27
2022-08-25T10:15:37.534Z,33.80
2022-08-25T10:16:39.260Z,30.10
2022-08-25T10:17:40.885Z,27.98
2022-08-25T10:18:42.493Z,31.83
2022-08-25T10:19:44.625Z,28.50
2022-08-25T10:21:08.960Z,30.23
2022-08-25T10:22:23.424Z,35.60
2022-08-25T10:23:27.576Z,24.50
2022-08-25T10:24:33.329Z,28.73
2022-08-25T10:25:43.619Z,35.25
2022-08-25T10:27:18.458Z,33.85
2022-08-25T10:28:26.349Z,28.67
2022-08-25T10:29:30.461Z,25.85
2022-08-25T10:31:02.039Z,28.88
2022-08-25T10:32:11.484Z,34.08
2022-08-25T10:33:24.859Z,33.95
2022-08-25T10:34:35.677Z,29.23
2022-08-25T10:35:46.409Z,28.95
2022-08-25T10:37:01.194Z,34.22
2022-08-25T10:38:22.321Z,32.13
2022-08-25T10:39:41.794Z,28.90
2022-08-25T10:40:51.289Z,30.27
2022-08-25T10:42:25.749Z,33.90
2022-08-25T10:43:40.918Z,26.92
2022-08-25T10:45:22.230Z,25.80
2022-08-25T10:46:52.926Z,26.60
2022-08-25T10:48:08.173Z,35.17
2022-08-25T10:49:26.814Z,34.33
2022-08-25T10:50:37.510Z,32.80
2022-08-25T10:52:03.643Z,33.92
2022-08-25T10:53:24.135Z,37.75
2022-08-25T10:54:44.415Z,31.48
2022-08-25T10:56:07.306Z,26.73
2022-08-25T10:57:39.642Z,30.23
2022-08-25T10:58:59.798Z,23.02
2022-08-25T11:00:10.017Z,23.52
2022-08-25T11:01:19.179Z,37.30
2022-08-25T11:02:54.620Z,32.88
2022-08-25T11:04:02.875Z,37.88
2022-08-25T11:05:12.987Z,25.88
2022-08-25T11:06:24.975Z,32.28
2022-08-25T11:07:44.996Z,26.63
2022-08-25T11:08:53.215Z,30.70
2022-08-25T11:10:03.152Z,24.63
2022-08-25T11:11:29.897Z,29.98
2022-08-25T11:12:35.764Z,30.38
2022-08-25T11:13:37.443Z,27.17
2022-08-25T11:14:49.471Z,35.80
2022-08-25T11:16:16.145Z,23.92
2022-08-25T11:17:30.250Z,25.70
2022-08-25T11:18:33.015Z,30.13
2022-08-25T11:20:00.900Z,38.47
2022-08-25T11:21:45.663Z,26.73
2022-08-25T11:22:59.313Z,28.20
2022-08-25T11:24:10.714Z,28.25
2022-08-25T11:25:25.562Z,38.03
2022-08-25T11:26:36.808Z,23.17
2022-08-25T11:27:38.825Z,21.17
2022-08-25T11:28:54.215Z,30.73
2022-08-25T11:30:11.540Z,26.08
2022-08-25T11:31:15.407Z,19.38
2022-08-25T11:32:20.940Z,22.17
2022-08-25T11:33:24.614Z,21.70
2022-08-25T11:34:31.075Z,26.25
2022-08-25T11:35:49.026Z,32.63
2022-08-25T11:37:11.160Z,23.90
2022-08-25T11:38:32.456Z,29.33
2022-08-25T11:40:04.052Z,27.65
2022-08-25T11:41:28.550Z,27.73
2022-08-25T11:42:51.900Z,21.27
2022-08-25T11:44:05.573Z,21.95
2022-08-25T11:45:16.493Z,19.00
2022-08-25T11:46:30.320Z,24.42
2022-08-25T11:47:39.935Z,28.65
2022-08-25T11:48:54.480Z,19.88
2022-08-25T11:50:09.298Z,33.40
2022-08-25T11:51:27.508Z,22.38
2022-08-25T11:52:38.106Z,21.02
2022-08-25T11:53:44.077Z,29.77
2022-08-25T11:54:48.407Z,23.92
2022-08-25T11:55:54.129Z,22.33
2022-08-25T11:57:18.056Z,18.40
2022-08-25T11:58:40.622Z,21.90
2022-08-25T11:59:51.799Z,21.83
2022-08-25T12:00:54.340Z,18.98
2022-08-25T12:01:55.887Z,23.60
2022-08-25T12:03:01.400Z,17.67
2022-08-25T12:04:34.121Z,30.58
2022-08-25T12:05:52.779Z,24.27
2022-08-25T12:07:07.017Z,28.13
2022-08-25T12:08:27.665Z,23.42
2022-08-25T12:09:29.326Z,21.45
2022-08-25T12:10:51.825Z,26.17
2022-08-25T12:11:58.407Z,23.20
2022-08-25T12:13:38.022Z,20.42
2022-08-25T12:14:43.196Z,21.00
2022-08-25T12:15:47.621Z,20.80
2022-08-25T12:16:51.481Z,29.55
2022-08-25T12:18:15.188Z,22.02
2022-08-25T12:19:35.139Z,14.80
2022-08-25T12:20:57.913Z,23.10
2022-08-25T12:22:03.631Z,20.95
2022-08-25T12:23:05.547Z,24.42
2022-08-25T12:24:14.603Z,22.08
2022-08-25T12:25:33.853Z,25.90
2022-08-25T12:27:00.685Z,17.40
2022-08-25T12:28:19.484Z,20.90
2022-08-25T12:29:34.412Z,24.08
2022-08-25T12:30:51.079Z,19.27
2022-08-25T12:32:04.714Z,24.10
2022-08-25T12:33:36.515Z,28.52
2022-08-25T12:35:02.023Z,22.63
2022-08-25T12:36:11.335Z,20.90
2022-08-25T12:37:22.236Z,25.88
2022-08-25T12:38:35.037Z,22.05
2022-08-25T12:40:02.814Z,22.83
2022-08-25T12:41:10.987Z,17.58
2022-08-25T12:42:36.046Z,23.75
2022-08-25T12:43:44.804Z,19.88
2022-08-25T12:44:48.576Z,25.85
2022-08-25T12:45:53.089Z,22.55
2022-08-25T12:47:29.876Z,18.60
2022-08-25T12:48:55.963Z,20.75
2022-08-25T12:50:25.799Z,23.23
2022-08-25T12:51:55.083Z,25.40
2022-08-25T12:53:17.878Z,18.25
2022-08-25T12:54:22.546Z,10.95
2022-08-25T12:55:26.387Z,23.02
2022-08-25T12:56:47.738Z,20.55
2022-08-25T12:57:58.657Z,24.52
2022-08-25T12:59:03.701Z,24.50
2022-08-25T13:00:16.840Z,21.52
2022-08-25T13:01:35.271Z,17.35
2022-08-25T13:02:59.003Z,23.98
2022-08-25T13:04:30.440Z,31.52
2022-08-25T13:05:34.740Z,23.85
2022-08-25T13:06:48.888Z,25.70
2022-08-25T13:08:24.181Z,16.77
2022-08-25T13:09:46.096Z,24.13
2022-08-25T13:10:55.174Z,20.63
2022-08-25T13:12:07.921Z,21.15
2022-08-25T13:13:39.711Z,18.33
2022-08-25T13:14:43.889Z,24.98
2022-08-25T13:16:02.418Z,22.73
2022-08-25T13:17:04.359Z,20.95
2022-08-25T13:18:23.300Z,18.75
2022-08-25T13:19:25.718Z,17.33
2022-08-25T13:20:30.971Z,21.15
2022-08-25T13:21:38.994Z,19.10
2022-08-25T13:22:41.104Z,24.63
2022-08-25T13:23:46.619Z,22.98
2022-08-25T13:24:50.960Z,16.30
2022-08-25T13:25:54.118Z,25.85
2022-08-25T13:27:04.188Z,19.88
2022-08-25T13:28:06.633Z,25.85
2022-08-25T13:29:27.803Z,18.83
2022-08-25T13:30:33.682Z,27.20
2022-08-25T13:31:38.482Z,27.70
2022-08-25T13:32:43.727Z,22.10
2022-08-25T13:34:02.337Z,19.23
2022-08-25T13:35:11.669Z,19.25
2022-08-25T13:36:35.829Z,23.17
2022-08-25T13:37:37.986Z,24.02
2022-08-25T13:38:40.138Z,20.90
2022-08-25T13:39:56.769Z,19.13
2022-08-25T13:41:09.280Z,21.98
2022-08-25T13:42:16.975Z,20.95
2022-08-25T13:43:27.426Z,23.40
2022-08-25T13:44:32.109Z,24.00
2022-08-25T13:45:40.957Z,18.17
2022-08-25T13:46:45.422Z,27.23
2022-08-25T13:47:48.885Z,26.77
2022-08-25T13:49:06.406Z,20.58
2022-08-25T13:50:26.497Z,18.90
2022-08-25T13:51:31.268Z,21.05
2022-08-25T13:52:33.476Z,16.08
2022-08-25T13:53:35.227Z,19.35
2022-08-25T13:54:41.943Z,17.60
2022-08-25T13:55:57.215Z,19.77
2022-08-25T13:57:16.889Z,21.52
2022-08-25T13:58:39.033Z,17.27
2022-08-25T13:59:51.803Z,16.55
2022-08-25T14:01:23.086Z,19.40
2022-08-25T14:02:54.189Z,24.45
2022-08-25T14:05:17.629Z,17.40
2022-08-25T14:06:25.203Z,24.65
2022-08-25T14:07:33.637Z,16.65
2022-08-25T14:08:44.979Z,22.63
2022-08-25T14:09:52.355Z,20.73
2022-08-25T14:11:08.710Z,22.33
2022-08-25T14:12:44.772Z,27.20
2022-08-25T14:13:46.892Z,21.85
2022-08-25T14:15:10.924Z,15.32
2022-08-25T14:16:22.159Z,30.65
2022-08-25T14:17:39.464Z,23.10
2022-08-25T14:18:58.854Z,15.35
2022-08-25T14:20:01.565Z,20.38
2022-08-25T14:21:11.061Z,16.38
2022-08-25T14:22:14.711Z,20.70
2022-08-25T14:23:22.548Z,18.00
2022-08-25T14:24:24.531Z,23.33
2022-08-25T14:25:31.305Z,24.13
2022-08-25T14:26:32.910Z,16.48
2022-08-25T14:27:41.936Z,23.25
2022-08-25T14:28:56.693Z,16.45